sensor_id;sensor_type;location;lat;lon;timestamp;P1;durP1;ratioP1;P2;durP2;ratioP2
62582;SDS011;48641;51.676;5.808;2023-02-24T00:02:12;10.30;;;3.70;;
62582;SDS011;48641;51.676;5.808;2023-02-24T00:04:39;11.63;;;4.28;;
62582;SDS011;48641;51.676;5.808;2023-02-24T00:07:06;8.98;;;3.70;;
62582;SDS011;48641;51.676;5.808;2023-02-24T00:09:34;8.65;;;3.60;;
62582;SDS011;48641;51.676;5.808;2023-02-24T00:12:02;9.75;;;3.92;;
62582;SDS011;48641;51.676;5.808;2023-02-24T00:14:33;7.30;;;3.60;;
62582;SDS011;48641;51.676;5.808;2023-02-24T00:17:00;11.07;;;3.95;;
62582;SDS011;48641;51.676;5.808;2023-02-24T00:19:27;9.60;;;3.70;;
62582;SDS011;48641;51.676;5.808;2023-02-24T00:21:56;9.73;;;3.75;;
62582;SDS011;48641;51.676;5.808;2023-02-24T00:24:23;9.43;;;3.47;;
62582;SDS011;48641;51.676;5.808;2023-02-24T00:26:53;8.50;;;3.85;;
62582;SDS011;48641;51.676;5.808;2023-02-24T00:29:21;8.85;;;3.50;;
62582;SDS011;48641;51.676;5.808;2023-02-24T00:31:51;7.90;;;3.65;;
62582;SDS011;48641;51.676;5.808;2023-02-24T00:34:23;8.57;;;3.60;;
62582;SDS011;48641;51.676;5.808;2023-02-24T00:36:52;9.25;;;3.80;;
62582;SDS011;48641;51.676;5.808;2023-02-24T00:39:18;8.90;;;3.25;;
62582;SDS011;48641;51.676;5.808;2023-02-24T00:41:54;10.20;;;3.55;;
62582;SDS011;48641;51.676;5.808;2023-02-24T00:44:32;8.68;;;3.33;;
62582;SDS011;48641;51.676;5.808;2023-02-24T00:47:00;8.05;;;3.47;;
62582;SDS011;48641;51.676;5.808;2023-02-24T00:49:28;10.18;;;3.78;;
62582;SDS011;48641;51.676;5.808;2023-02-24T00:51:55;8.63;;;3.78;;
62582;SDS011;48641;51.676;5.808;2023-02-24T00:54:22;8.02;;;3.25;;
62582;SDS011;48641;51.676;5.808;2023-02-24T00:56:52;9.77;;;3.78;;
62582;SDS011;48641;51.676;5.808;2023-02-24T00:59:18;8.48;;;3.78;;
62582;SDS011;48641;51.676;5.808;2023-02-24T01:01:46;10.13;;;3.85;;
62582;SDS011;48641;51.676;5.808;2023-02-24T01:04:14;10.82;;;3.80;;
62582;SDS011;48641;51.676;5.808;2023-02-24T01:06:42;9.02;;;3.50;;
62582;SDS011;48641;51.676;5.808;2023-02-24T01:09:13;8.45;;;3.45;;
62582;SDS011;48641;51.676;5.808;2023-02-24T01:11:41;9.13;;;3.63;;
62582;SDS011;48641;51.676;5.808;2023-02-24T01:14:46;9.73;;;3.47;;
62582;SDS011;48641;51.676;5.808;2023-02-24T01:17:13;8.32;;;3.38;;
62582;SDS011;48641;51.676;5.808;2023-02-24T01:19:39;10.27;;;3.50;;
62582;SDS011;48641;51.676;5.808;2023-02-24T01:22:07;9.77;;;3.42;;
62582;SDS011;48641;51.676;5.808;2023-02-24T01:24:37;8.27;;;3.30;;
62582;SDS011;48641;51.676;5.808;2023-02-24T01:27:04;9.23;;;3.80;;
62582;SDS011;48641;51.676;5.808;2023-02-24T01:29:30;8.75;;;3.10;;
62582;SDS011;48641;51.676;5.808;2023-02-24T01:31:56;7.65;;;3.60;;
62582;SDS011;48641;51.676;5.808;2023-02-24T01:34:26;7.95;;;3.10;;
62582;SDS011;48641;51.676;5.808;2023-02-24T01:36:52;8.95;;;3.22;;
62582;SDS011;48641;51.676;5.808;2023-02-24T01:39:18;8.45;;;3.08;;
62582;SDS011;48641;51.676;5.808;2023-02-24T01:41:45;9.05;;;3.20;;
62582;SDS011;48641;51.676;5.808;2023-02-24T01:46:42;8.55;;;3.40;;
62582;SDS011;48641;51.676;5.808;2023-02-24T01:49:11;9.27;;;3.10;;
62582;SDS011;48641;51.676;5.808;2023-02-24T01:51:49;9.98;;;3.35;;
62582;SDS011;48641;51.676;5.808;2023-02-24T01:54:19;9.77;;;3.30;;
62582;SDS011;48641;51.676;5.808;2023-02-24T01:56:48;7.50;;;3.00;;
62582;SDS011;48641;51.676;5.808;2023-02-24T01:59:15;9.38;;;3.08;;
62582;SDS011;48641;51.676;5.808;2023-02-24T02:01:42;7.03;;;2.97;;
62582;SDS011;48641;51.676;5.808;2023-02-24T02:09:14;8.98;;;3.22;;
62582;SDS011;48641;51.676;5.808;2023-02-24T02:11:41;10.15;;;2.75;;
62582;SDS011;48641;51.676;5.808;2023-02-24T02:14:07;9.10;;;3.35;;
62582;SDS011;48641;51.676;5.808;2023-02-24T02:22:03;6.53;;;2.80;;
62582;SDS011;48641;51.676;5.808;2023-02-24T02:35:44;7.57;;;2.65;;
62582;SDS011;48641;51.676;5.808;2023-02-24T02:38:21;7.43;;;2.72;;
62582;SDS011;48641;51.676;5.808;2023-02-24T02:43:42;7.82;;;2.75;;
62582;SDS011;48641;51.676;5.808;2023-02-24T02:48:58;7.32;;;2.75;;
62582;SDS011;48641;51.676;5.808;2023-02-24T02:51:48;6.45;;;2.45;;
62582;SDS011;48641;51.676;5.808;2023-02-24T02:56:56;7.95;;;2.80;;
62582;SDS011;48641;51.676;5.808;2023-02-24T02:59:28;6.55;;;2.60;;
62582;SDS011;48641;51.676;5.808;2023-02-24T03:01:56;7.60;;;2.63;;
62582;SDS011;48641;51.676;5.808;2023-02-24T03:04:35;6.60;;;2.50;;
62582;SDS011;48641;51.676;5.808;2023-02-24T03:07:21;6.82;;;2.45;;
62582;SDS011;48641;51.676;5.808;2023-02-24T03:09:55;6.88;;;2.47;;
62582;SDS011;48641;51.676;5.808;2023-02-24T03:12:25;9.35;;;2.67;;
62582;SDS011;48641;51.676;5.808;2023-02-24T03:14:59;7.93;;;2.20;;
62582;SDS011;48641;51.676;5.808;2023-02-24T03:17:29;6.78;;;2.42;;
62582;SDS011;48641;51.676;5.808;2023-02-24T03:20:08;6.07;;;2.20;;
62582;SDS011;48641;51.676;5.808;2023-02-24T03:22:43;9.55;;;2.88;;
62582;SDS011;48641;51.676;5.808;2023-02-24T03:25:24;7.03;;;2.50;;
62582;SDS011;48641;51.676;5.808;2023-02-24T03:27:58;7.65;;;2.38;;
62582;SDS011;48641;51.676;5.808;2023-02-24T03:30:43;6.97;;;2.08;;
62582;SDS011;48641;51.676;5.808;2023-02-24T03:33:15;7.72;;;2.45;;
62582;SDS011;48641;51.676;5.808;2023-02-24T03:35:53;5.20;;;1.95;;
62582;SDS011;48641;51.676;5.808;2023-02-24T03:38:25;6.82;;;2.38;;
62582;SDS011;48641;51.676;5.808;2023-02-24T03:40:52;8.15;;;2.47;;
62582;SDS011;48641;51.676;5.808;2023-02-24T03:43:27;5.72;;;2.30;;
62582;SDS011;48641;51.676;5.808;2023-02-24T03:45:57;6.05;;;2.22;;
62582;SDS011;48641;51.676;5.808;2023-02-24T03:48:25;7.75;;;2.50;;
62582;SDS011;48641;51.676;5.808;2023-02-24T03:50:52;7.10;;;2.40;;
62582;SDS011;48641;51.676;5.808;2023-02-24T03:53:29;8.07;;;2.35;;
62582;SDS011;48641;51.676;5.808;2023-02-24T03:58:57;6.25;;;2.35;;
62582;SDS011;48641;51.676;5.808;2023-02-24T04:01:50;5.07;;;1.98;;
62582;SDS011;48641;51.676;5.808;2023-02-24T04:04:27;8.20;;;2.30;;
62582;SDS011;48641;51.676;5.808;2023-02-24T04:07:14;7.07;;;2.30;;
62582;SDS011;48641;51.676;5.808;2023-02-24T04:15:00;6.72;;;2.30;;
62582;SDS011;48641;51.676;5.808;2023-02-24T04:17:42;6.03;;;2.30;;
62582;SDS011;48641;51.676;5.808;2023-02-24T04:20:11;6.13;;;2.15;;
62582;SDS011;48641;51.676;5.808;2023-02-24T04:22:40;6.57;;;2.20;;
62582;SDS011;48641;51.676;5.808;2023-02-24T04:25:09;7.40;;;2.20;;
62582;SDS011;48641;51.676;5.808;2023-02-24T04:27:40;8.23;;;2.07;;
62582;SDS011;48641;51.676;5.808;2023-02-24T04:30:09;6.32;;;2.20;;
62582;SDS011;48641;51.676;5.808;2023-02-24T04:32:36;7.15;;;2.05;;
62582;SDS011;48641;51.676;5.808;2023-02-24T04:35:03;7.22;;;2.10;;
62582;SDS011;48641;51.676;5.808;2023-02-24T04:37:31;6.82;;;2.13;;
62582;SDS011;48641;51.676;5.808;2023-02-24T04:39:59;7.43;;;2.05;;
62582;SDS011;48641;51.676;5.808;2023-02-24T04:42:25;6.47;;;2.10;;
62582;SDS011;48641;51.676;5.808;2023-02-24T04:44:51;6.43;;;2.13;;
62582;SDS011;48641;51.676;5.808;2023-02-24T04:47:17;8.25;;;2.35;;
62582;SDS011;48641;51.676;5.808;2023-02-24T04:49:43;7.53;;;2.35;;
62582;SDS011;48641;51.676;5.808;2023-02-24T04:52:09;6.93;;;2.00;;
62582;SDS011;48641;51.676;5.808;2023-02-24T04:54:35;6.35;;;2.00;;
62582;SDS011;48641;51.676;5.808;2023-02-24T04:57:02;6.38;;;2.05;;
62582;SDS011;48641;51.676;5.808;2023-02-24T04:59:30;5.47;;;1.95;;
62582;SDS011;48641;51.676;5.808;2023-02-24T05:01:57;7.07;;;2.10;;
62582;SDS011;48641;51.676;5.808;2023-02-24T05:04:25;6.00;;;2.47;;
62582;SDS011;48641;51.676;5.808;2023-02-24T05:06:51;5.68;;;1.90;;
62582;SDS011;48641;51.676;5.808;2023-02-24T05:09:20;6.80;;;2.20;;
62582;SDS011;48641;51.676;5.808;2023-02-24T05:11:47;5.88;;;1.80;;
62582;SDS011;48641;51.676;5.808;2023-02-24T05:14:14;6.22;;;2.10;;
62582;SDS011;48641;51.676;5.808;2023-02-24T05:16:42;5.22;;;1.90;;
62582;SDS011;48641;51.676;5.808;2023-02-24T05:19:09;6.35;;;2.05;;
62582;SDS011;48641;51.676;5.808;2023-02-24T05:21:54;5.45;;;1.70;;
62582;SDS011;48641;51.676;5.808;2023-02-24T05:24:22;7.10;;;1.90;;
62582;SDS011;48641;51.676;5.808;2023-02-24T05:26:52;5.75;;;1.90;;
62582;SDS011;48641;51.676;5.808;2023-02-24T05:31:52;7.03;;;1.98;;
62582;SDS011;48641;51.676;5.808;2023-02-24T05:34:19;5.63;;;1.92;;
62582;SDS011;48641;51.676;5.808;2023-02-24T05:36:45;6.43;;;1.63;;
62582;SDS011;48641;51.676;5.808;2023-02-24T05:39:13;5.63;;;1.70;;
62582;SDS011;48641;51.676;5.808;2023-02-24T05:41:43;5.70;;;1.60;;
62582;SDS011;48641;51.676;5.808;2023-02-24T05:46:40;5.13;;;1.60;;
62582;SDS011;48641;51.676;5.808;2023-02-24T05:49:13;4.30;;;1.58;;
62582;SDS011;48641;51.676;5.808;2023-02-24T05:51:47;6.00;;;1.77;;
62582;SDS011;48641;51.676;5.808;2023-02-24T05:54:33;5.32;;;1.80;;
62582;SDS011;48641;51.676;5.808;2023-02-24T05:57:05;4.93;;;1.75;;
62582;SDS011;48641;51.676;5.808;2023-02-24T05:59:35;3.65;;;1.38;;
62582;SDS011;48641;51.676;5.808;2023-02-24T06:02:04;5.70;;;1.75;;
62582;SDS011;48641;51.676;5.808;2023-02-24T06:04:33;4.95;;;1.85;;
62582;SDS011;48641;51.676;5.808;2023-02-24T07:27:57;6.20;;;1.75;;
62582;SDS011;48641;51.676;5.808;2023-02-24T07:30:26;7.50;;;1.40;;
62582;SDS011;48641;51.676;5.808;2023-02-24T07:32:53;7.95;;;2.05;;
62582;SDS011;48641;51.676;5.808;2023-02-24T07:35:20;10.15;;;1.80;;
62582;SDS011;48641;51.676;5.808;2023-02-24T07:37:46;7.60;;;1.73;;
62582;SDS011;48641;51.676;5.808;2023-02-24T07:40:14;13.18;;;1.88;;
62582;SDS011;48641;51.676;5.808;2023-02-24T07:42:41;11.40;;;1.70;;
62582;SDS011;48641;51.676;5.808;2023-02-24T07:45:07;5.72;;;1.58;;
62582;SDS011;48641;51.676;5.808;2023-02-24T07:47:34;10.02;;;1.90;;
62582;SDS011;48641;51.676;5.808;2023-02-24T07:50:00;7.18;;;1.60;;
62582;SDS011;48641;51.676;5.808;2023-02-24T07:52:34;9.30;;;1.65;;
62582;SDS011;48641;51.676;5.808;2023-02-24T07:55:00;8.07;;;1.23;;
62582;SDS011;48641;51.676;5.808;2023-02-24T07:57:27;8.55;;;1.80;;
62582;SDS011;48641;51.676;5.808;2023-02-24T07:59:52;7.45;;;1.45;;
62582;SDS011;48641;51.676;5.808;2023-02-24T08:02:18;8.20;;;1.63;;
62582;SDS011;48641;51.676;5.808;2023-02-24T08:04:44;7.55;;;1.65;;
62582;SDS011;48641;51.676;5.808;2023-02-24T08:07:14;7.28;;;2.13;;
62582;SDS011;48641;51.676;5.808;2023-02-24T08:09:40;4.95;;;1.30;;
62582;SDS011;48641;51.676;5.808;2023-02-24T08:14:42;4.30;;;1.13;;
62582;SDS011;48641;51.676;5.808;2023-02-24T08:17:09;5.40;;;1.15;;
62582;SDS011;48641;51.676;5.808;2023-02-24T08:19:36;4.50;;;1.35;;
62582;SDS011;48641;51.676;5.808;2023-02-24T08:22:06;5.85;;;1.40;;
62582;SDS011;48641;51.676;5.808;2023-02-24T08:24:57;5.40;;;1.38;;
62582;SDS011;48641;51.676;5.808;2023-02-24T08:27:30;6.07;;;1.33;;
62582;SDS011;48641;51.676;5.808;2023-02-24T08:29:58;5.90;;;1.45;;
62582;SDS011;48641;51.676;5.808;2023-02-24T08:34:57;5.38;;;1.30;;
62582;SDS011;48641;51.676;5.808;2023-02-24T08:37:26;4.55;;;1.13;;
62582;SDS011;48641;51.676;5.808;2023-02-24T08:39:57;8.88;;;1.40;;
62582;SDS011;48641;51.676;5.808;2023-02-24T08:42:23;6.20;;;1.52;;
62582;SDS011;48641;51.676;5.808;2023-02-24T08:44:58;4.00;;;1.00;;
62582;SDS011;48641;51.676;5.808;2023-02-24T08:47:25;5.65;;;1.20;;
62582;SDS011;48641;51.676;5.808;2023-02-24T08:52:24;4.10;;;1.08;;
62582;SDS011;48641;51.676;5.808;2023-02-24T08:54:51;5.63;;;1.33;;
62582;SDS011;48641;51.676;5.808;2023-02-24T08:57:23;4.15;;;1.10;;
62582;SDS011;48641;51.676;5.808;2023-02-24T08:59:51;5.78;;;1.20;;
62582;SDS011;48641;51.676;5.808;2023-02-24T09:02:22;4.47;;;1.20;;
62582;SDS011;48641;51.676;5.808;2023-02-24T09:05:01;5.07;;;1.20;;
62582;SDS011;48641;51.676;5.808;2023-02-24T09:07:35;3.70;;;0.80;;
62582;SDS011;48641;51.676;5.808;2023-02-24T09:10:08;4.60;;;0.95;;
62582;SDS011;48641;51.676;5.808;2023-02-24T09:12:41;5.45;;;1.30;;
62582;SDS011;48641;51.676;5.808;2023-02-24T09:15:08;5.57;;;1.30;;
62582;SDS011;48641;51.676;5.808;2023-02-24T09:17:36;5.35;;;1.10;;
62582;SDS011;48641;51.676;5.808;2023-02-24T09:20:12;3.65;;;1.00;;
62582;SDS011;48641;51.676;5.808;2023-02-24T09:22:52;5.18;;;1.20;;
62582;SDS011;48641;51.676;5.808;2023-02-24T09:25:22;4.63;;;1.00;;
62582;SDS011;48641;51.676;5.808;2023-02-24T09:28:09;3.63;;;1.10;;
62582;SDS011;48641;51.676;5.808;2023-02-24T09:30:41;3.95;;;0.80;;
62582;SDS011;48641;51.676;5.808;2023-02-24T09:33:24;3.38;;;0.95;;
62582;SDS011;48641;51.676;5.808;2023-02-24T09:36:04;3.33;;;0.95;;
62582;SDS011;48641;51.676;5.808;2023-02-24T09:38:43;8.32;;;1.30;;
62582;SDS011;48641;51.676;5.808;2023-02-24T09:41:39;6.10;;;1.00;;
62582;SDS011;48641;51.676;5.808;2023-02-24T09:44:27;3.20;;;0.80;;
62582;SDS011;48641;51.676;5.808;2023-02-24T09:53:02;4.00;;;1.10;;
62582;SDS011;48641;51.676;5.808;2023-02-24T09:58:43;3.97;;;1.00;;
62582;SDS011;48641;51.676;5.808;2023-02-24T10:04:15;3.78;;;0.98;;
62582;SDS011;48641;51.676;5.808;2023-02-24T10:07:11;4.45;;;1.20;;
62582;SDS011;48641;51.676;5.808;2023-02-24T10:09:52;6.13;;;1.30;;
62582;SDS011;48641;51.676;5.808;2023-02-24T10:12:52;5.03;;;1.00;;
62582;SDS011;48641;51.676;5.808;2023-02-24T10:15:39;5.22;;;1.00;;
62582;SDS011;48641;51.676;5.808;2023-02-24T10:20:52;5.82;;;1.00;;
62582;SDS011;48641;51.676;5.808;2023-02-24T10:26:22;3.53;;;1.15;;
62582;SDS011;48641;51.676;5.808;2023-02-24T10:31:49;3.45;;;0.90;;
62582;SDS011;48641;51.676;5.808;2023-02-24T10:34:22;4.68;;;1.08;;
62582;SDS011;48641;51.676;5.808;2023-02-24T10:36:56;5.20;;;0.98;;
62582;SDS011;48641;51.676;5.808;2023-02-24T10:39:25;4.65;;;0.98;;
62582;SDS011;48641;51.676;5.808;2023-02-24T10:41:55;4.10;;;1.13;;
62582;SDS011;48641;51.676;5.808;2023-02-24T10:44:26;3.90;;;0.80;;
62582;SDS011;48641;51.676;5.808;2023-02-24T10:47:07;3.03;;;0.80;;
62582;SDS011;48641;51.676;5.808;2023-02-24T10:49:44;3.05;;;0.80;;
62582;SDS011;48641;51.676;5.808;2023-02-24T10:52:24;3.88;;;1.10;;
62582;SDS011;48641;51.676;5.808;2023-02-24T10:55:05;5.30;;;1.33;;
62582;SDS011;48641;51.676;5.808;2023-02-24T10:57:51;6.07;;;1.17;;
62582;SDS011;48641;51.676;5.808;2023-02-24T11:00:36;3.03;;;0.95;;
62582;SDS011;48641;51.676;5.808;2023-02-24T11:03:37;4.72;;;1.00;;
62582;SDS011;48641;51.676;5.808;2023-02-24T11:06:30;5.13;;;1.00;;
62582;SDS011;48641;51.676;5.808;2023-02-24T11:09:05;3.92;;;1.05;;
62582;SDS011;48641;51.676;5.808;2023-02-24T11:11:57;3.05;;;1.05;;
62582;SDS011;48641;51.676;5.808;2023-02-24T11:14:55;4.10;;;1.02;;
62582;SDS011;48641;51.676;5.808;2023-02-24T11:18:14;5.47;;;1.35;;
62582;SDS011;48641;51.676;5.808;2023-02-24T11:20:47;2.90;;;0.77;;
62582;SDS011;48641;51.676;5.808;2023-02-24T11:23:18;3.85;;;0.88;;
62582;SDS011;48641;51.676;5.808;2023-02-24T11:25:50;3.38;;;1.00;;
62582;SDS011;48641;51.676;5.808;2023-02-24T11:30:58;3.07;;;1.00;;
62582;SDS011;48641;51.676;5.808;2023-02-24T11:33:42;4.22;;;1.00;;
62582;SDS011;48641;51.676;5.808;2023-02-24T11:39:00;4.35;;;1.05;;
62582;SDS011;48641;51.676;5.808;2023-02-24T11:41:41;3.08;;;1.00;;
62582;SDS011;48641;51.676;5.808;2023-02-24T11:46:46;4.40;;;1.25;;
62582;SDS011;48641;51.676;5.808;2023-02-24T11:51:53;4.72;;;0.90;;
62582;SDS011;48641;51.676;5.808;2023-02-24T11:54:21;4.13;;;1.08;;
62582;SDS011;48641;51.676;5.808;2023-02-24T11:56:52;4.63;;;0.95;;
62582;SDS011;48641;51.676;5.808;2023-02-24T12:07:37;2.40;;;0.77;;
62582;SDS011;48641;51.676;5.808;2023-02-24T12:10:22;4.82;;;1.10;;
62582;SDS011;48641;51.676;5.808;2023-02-24T12:16:23;4.35;;;1.15;;
62582;SDS011;48641;51.676;5.808;2023-02-24T12:18:40;4.15;;;1.00;;
62582;SDS011;48641;51.676;5.808;2023-02-24T12:21:20;4.35;;;1.20;;
62582;SDS011;48641;51.676;5.808;2023-02-24T12:23:54;6.82;;;1.10;;
62582;SDS011;48641;51.676;5.808;2023-02-24T12:31:46;3.28;;;1.00;;
62582;SDS011;48641;51.676;5.808;2023-02-24T12:42:53;2.90;;;1.10;;
62582;SDS011;48641;51.676;5.808;2023-02-24T12:50:45;3.60;;;1.15;;
62582;SDS011;48641;51.676;5.808;2023-02-24T12:53:26;5.43;;;1.40;;
62582;SDS011;48641;51.676;5.808;2023-02-24T12:56:26;4.18;;;1.13;;
62582;SDS011;48641;51.676;5.808;2023-02-24T12:59:04;5.18;;;1.10;;
62582;SDS011;48641;51.676;5.808;2023-02-24T13:04:12;6.30;;;1.50;;
62582;SDS011;48641;51.676;5.808;2023-02-24T13:15:02;5.43;;;1.20;;
62582;SDS011;48641;51.676;5.808;2023-02-24T13:19:55;6.32;;;1.23;;
62582;SDS011;48641;51.676;5.808;2023-02-24T13:22:27;4.15;;;1.02;;
62582;SDS011;48641;51.676;5.808;2023-02-24T13:25:02;3.85;;;1.10;;
62582;SDS011;48641;51.676;5.808;2023-02-24T13:27:41;5.07;;;1.25;;
62582;SDS011;48641;51.676;5.808;2023-02-24T13:35:27;6.00;;;1.42;;
62582;SDS011;48641;51.676;5.808;2023-02-24T13:37:50;3.75;;;1.40;;
62582;SDS011;48641;51.676;5.808;2023-02-24T13:42:43;3.75;;;1.20;;
62582;SDS011;48641;51.676;5.808;2023-02-24T13:45:27;3.45;;;1.02;;
62582;SDS011;48641;51.676;5.808;2023-02-24T13:48:11;5.68;;;1.60;;
62582;SDS011;48641;51.676;5.808;2023-02-24T13:56:41;4.45;;;1.23;;
62582;SDS011;48641;51.676;5.808;2023-02-24T14:01:56;4.50;;;1.20;;
62582;SDS011;48641;51.676;5.808;2023-02-24T14:04:32;8.73;;;2.10;;
62582;SDS011;48641;51.676;5.808;2023-02-24T14:07:04;6.97;;;1.83;;
62582;SDS011;48641;51.676;5.808;2023-02-24T14:09:44;6.65;;;1.65;;
62582;SDS011;48641;51.676;5.808;2023-02-24T14:12:17;7.15;;;1.58;;
62582;SDS011;48641;51.676;5.808;2023-02-24T14:14:45;7.40;;;1.50;;
62582;SDS011;48641;51.676;5.808;2023-02-24T14:20:06;9.85;;;1.60;;
62582;SDS011;48641;51.676;5.808;2023-02-24T14:22:31;4.60;;;1.30;;
62582;SDS011;48641;51.676;5.808;2023-02-24T14:25:01;4.75;;;1.50;;
62582;SDS011;48641;51.676;5.808;2023-02-24T14:27:28;5.57;;;1.33;;
62582;SDS011;48641;51.676;5.808;2023-02-24T14:29:54;5.63;;;1.52;;
62582;SDS011;48641;51.676;5.808;2023-02-24T14:32:21;8.00;;;1.92;;
62582;SDS011;48641;51.676;5.808;2023-02-24T14:37:14;6.00;;;1.70;;
62582;SDS011;48641;51.676;5.808;2023-02-24T14:39:51;5.40;;;2.17;;
62582;SDS011;48641;51.676;5.808;2023-02-24T14:42:18;5.97;;;1.45;;
62582;SDS011;48641;51.676;5.808;2023-02-24T14:44:46;4.78;;;1.30;;
62582;SDS011;48641;51.676;5.808;2023-02-24T14:47:12;4.65;;;1.25;;
62582;SDS011;48641;51.676;5.808;2023-02-24T14:49:38;6.63;;;1.40;;
62582;SDS011;48641;51.676;5.808;2023-02-24T14:54:41;7.47;;;1.40;;
62582;SDS011;48641;51.676;5.808;2023-02-24T14:57:11;5.93;;;1.60;;
62582;SDS011;48641;51.676;5.808;2023-02-24T14:59:40;3.75;;;1.33;;
62582;SDS011;48641;51.676;5.808;2023-02-24T15:02:13;5.75;;;1.40;;
62582;SDS011;48641;51.676;5.808;2023-02-24T15:04:43;4.93;;;1.67;;
62582;SDS011;48641;51.676;5.808;2023-02-24T15:07:15;3.88;;;1.45;;
62582;SDS011;48641;51.676;5.808;2023-02-24T15:09:51;4.60;;;1.80;;
62582;SDS011;48641;51.676;5.808;2023-02-24T15:12:20;8.10;;;1.98;;
62582;SDS011;48641;51.676;5.808;2023-02-24T15:14:55;5.20;;;1.63;;
62582;SDS011;48641;51.676;5.808;2023-02-24T15:20:01;7.32;;;1.83;;
62582;SDS011;48641;51.676;5.808;2023-02-24T15:22:31;9.10;;;2.00;;
62582;SDS011;48641;51.676;5.808;2023-02-24T15:25:18;5.63;;;1.63;;
62582;SDS011;48641;51.676;5.808;2023-02-24T15:27:58;5.95;;;1.55;;
62582;SDS011;48641;51.676;5.808;2023-02-24T15:30:30;9.63;;;3.08;;
62582;SDS011;48641;51.676;5.808;2023-02-24T15:33:05;6.35;;;1.90;;
62582;SDS011;48641;51.676;5.808;2023-02-24T15:35:38;7.13;;;2.05;;
62582;SDS011;48641;51.676;5.808;2023-02-24T15:38:16;6.82;;;1.90;;
62582;SDS011;48641;51.676;5.808;2023-02-24T15:40:53;6.75;;;2.30;;
62582;SDS011;48641;51.676;5.808;2023-02-24T15:46:19;7.22;;;2.08;;
62582;SDS011;48641;51.676;5.808;2023-02-24T15:48:49;6.70;;;2.00;;
62582;SDS011;48641;51.676;5.808;2023-02-24T15:51:37;6.03;;;1.98;;
62582;SDS011;48641;51.676;5.808;2023-02-24T15:54:07;41.30;;;7.03;;
62582;SDS011;48641;51.676;5.808;2023-02-24T15:56:37;40.53;;;5.93;;
62582;SDS011;48641;51.676;5.808;2023-02-24T15:59:04;34.58;;;5.03;;
62582;SDS011;48641;51.676;5.808;2023-02-24T16:01:30;24.27;;;4.55;;
62582;SDS011;48641;51.676;5.808;2023-02-24T16:03:56;24.75;;;4.43;;
62582;SDS011;48641;51.676;5.808;2023-02-24T16:06:25;21.48;;;3.85;;
62582;SDS011;48641;51.676;5.808;2023-02-24T16:08:52;22.38;;;4.25;;
62582;SDS011;48641;51.676;5.808;2023-02-24T16:11:20;20.17;;;4.22;;
62582;SDS011;48641;51.676;5.808;2023-02-24T16:13:51;11.05;;;3.10;;
62582;SDS011;48641;51.676;5.808;2023-02-24T16:16:20;17.08;;;3.20;;
62582;SDS011;48641;51.676;5.808;2023-02-24T16:18:46;18.98;;;3.75;;
62582;SDS011;48641;51.676;5.808;2023-02-24T16:21:12;17.98;;;3.88;;
62582;SDS011;48641;51.676;5.808;2023-02-24T16:23:37;14.75;;;2.88;;
62582;SDS011;48641;51.676;5.808;2023-02-24T16:26:04;15.13;;;3.28;;
62582;SDS011;48641;51.676;5.808;2023-02-24T16:28:32;14.18;;;3.25;;
62582;SDS011;48641;51.676;5.808;2023-02-24T16:30:58;23.20;;;7.65;;
62582;SDS011;48641;51.676;5.808;2023-02-24T16:33:23;17.55;;;4.78;;
62582;SDS011;48641;51.676;5.808;2023-02-24T16:35:50;17.88;;;4.65;;
62582;SDS011;48641;51.676;5.808;2023-02-24T16:38:19;14.50;;;4.20;;
62582;SDS011;48641;51.676;5.808;2023-02-24T16:40:47;14.90;;;4.20;;
62582;SDS011;48641;51.676;5.808;2023-02-24T16:43:14;15.93;;;3.78;;
62582;SDS011;48641;51.676;5.808;2023-02-24T16:45:40;15.55;;;4.63;;
62582;SDS011;48641;51.676;5.808;2023-02-24T16:48:08;15.57;;;4.57;;
62582;SDS011;48641;51.676;5.808;2023-02-24T16:50:43;14.40;;;3.38;;
62582;SDS011;48641;51.676;5.808;2023-02-24T16:53:14;10.18;;;3.08;;
62582;SDS011;48641;51.676;5.808;2023-02-24T16:55:41;12.88;;;3.53;;
62582;SDS011;48641;51.676;5.808;2023-02-24T16:58:08;12.25;;;3.45;;
62582;SDS011;48641;51.676;5.808;2023-02-24T17:00:34;13.07;;;4.40;;
62582;SDS011;48641;51.676;5.808;2023-02-24T17:03:00;9.27;;;3.08;;
62582;SDS011;48641;51.676;5.808;2023-02-24T17:05:30;13.38;;;3.40;;
62582;SDS011;48641;51.676;5.808;2023-02-24T17:07:56;12.85;;;3.50;;
62582;SDS011;48641;51.676;5.808;2023-02-24T17:10:22;10.05;;;3.38;;
62582;SDS011;48641;51.676;5.808;2023-02-24T17:12:49;11.05;;;3.55;;
62582;SDS011;48641;51.676;5.808;2023-02-24T17:15:16;11.63;;;3.35;;
62582;SDS011;48641;51.676;5.808;2023-02-24T17:17:43;13.18;;;3.45;;
62582;SDS011;48641;51.676;5.808;2023-02-24T17:20:12;8.43;;;2.80;;
62582;SDS011;48641;51.676;5.808;2023-02-24T17:22:40;11.82;;;3.45;;
62582;SDS011;48641;51.676;5.808;2023-02-24T17:25:06;10.25;;;3.42;;
62582;SDS011;48641;51.676;5.808;2023-02-24T17:27:35;9.27;;;3.10;;
62582;SDS011;48641;51.676;5.808;2023-02-24T17:30:00;13.90;;;3.40;;
62582;SDS011;48641;51.676;5.808;2023-02-24T17:32:26;10.38;;;3.08;;
62582;SDS011;48641;51.676;5.808;2023-02-24T17:34:52;9.98;;;2.90;;
62582;SDS011;48641;51.676;5.808;2023-02-24T17:37:17;9.25;;;2.80;;
62582;SDS011;48641;51.676;5.808;2023-02-24T17:39:43;10.40;;;3.13;;
62582;SDS011;48641;51.676;5.808;2023-02-24T17:42:08;8.32;;;2.92;;
62582;SDS011;48641;51.676;5.808;2023-02-24T17:44:37;9.43;;;2.97;;
62582;SDS011;48641;51.676;5.808;2023-02-24T17:47:02;11.65;;;4.20;;
62582;SDS011;48641;51.676;5.808;2023-02-24T17:49:29;10.02;;;3.25;;
62582;SDS011;48641;51.676;5.808;2023-02-24T17:51:54;10.85;;;3.28;;
62582;SDS011;48641;51.676;5.808;2023-02-24T17:54:20;10.48;;;3.35;;
62582;SDS011;48641;51.676;5.808;2023-02-24T17:56:45;8.48;;;2.83;;
62582;SDS011;48641;51.676;5.808;2023-02-24T17:59:11;8.13;;;3.47;;
62582;SDS011;48641;51.676;5.808;2023-02-24T18:01:36;11.00;;;2.80;;
62582;SDS011;48641;51.676;5.808;2023-02-24T18:04:02;12.63;;;3.95;;
62582;SDS011;48641;51.676;5.808;2023-02-24T18:06:28;8.57;;;3.25;;
62582;SDS011;48641;51.676;5.808;2023-02-24T18:08:53;9.57;;;3.10;;
62582;SDS011;48641;51.676;5.808;2023-02-24T18:11:19;9.32;;;3.30;;
62582;SDS011;48641;51.676;5.808;2023-02-24T18:13:44;11.70;;;3.78;;
62582;SDS011;48641;51.676;5.808;2023-02-24T18:16:12;10.20;;;3.72;;
62582;SDS011;48641;51.676;5.808;2023-02-24T18:18:39;9.98;;;3.80;;
62582;SDS011;48641;51.676;5.808;2023-02-24T18:21:05;10.05;;;4.00;;
62582;SDS011;48641;51.676;5.808;2023-02-24T18:23:32;8.27;;;3.15;;
62582;SDS011;48641;51.676;5.808;2023-02-24T18:26:02;8.73;;;3.45;;
62582;SDS011;48641;51.676;5.808;2023-02-24T18:28:30;8.68;;;3.58;;
62582;SDS011;48641;51.676;5.808;2023-02-24T18:30:56;11.65;;;3.22;;
62582;SDS011;48641;51.676;5.808;2023-02-24T18:33:24;9.15;;;3.67;;
62582;SDS011;48641;51.676;5.808;2023-02-24T18:35:57;7.95;;;3.83;;
62582;SDS011;48641;51.676;5.808;2023-02-24T18:38:23;9.75;;;3.53;;
62582;SDS011;48641;51.676;5.808;2023-02-24T18:41:03;10.15;;;3.30;;
62582;SDS011;48641;51.676;5.808;2023-02-24T18:43:33;7.65;;;3.10;;
62582;SDS011;48641;51.676;5.808;2023-02-24T18:46:03;8.18;;;3.20;;
62582;SDS011;48641;51.676;5.808;2023-02-24T18:48:30;7.53;;;3.20;;
62582;SDS011;48641;51.676;5.808;2023-02-24T18:50:57;8.80;;;3.08;;
62582;SDS011;48641;51.676;5.808;2023-02-24T18:53:24;8.18;;;3.05;;
62582;SDS011;48641;51.676;5.808;2023-02-24T18:55:57;8.27;;;3.17;;
62582;SDS011;48641;51.676;5.808;2023-02-24T18:58:24;6.07;;;2.85;;
62582;SDS011;48641;51.676;5.808;2023-02-24T19:00:50;7.53;;;2.90;;
62582;SDS011;48641;51.676;5.808;2023-02-24T19:03:15;9.18;;;3.03;;
62582;SDS011;48641;51.676;5.808;2023-02-24T19:05:41;11.15;;;4.30;;
62582;SDS011;48641;51.676;5.808;2023-02-24T19:08:07;8.88;;;3.10;;
62582;SDS011;48641;51.676;5.808;2023-02-24T19:10:32;9.68;;;3.90;;